EBBL

Kleine Brogel Air Base Airport

Kleine Brogel, Belgium
METAR EBBL 211455Z AUTO 09006KT 9999 NCD 24/10 Q1020 BLU
Observed Flight Rules
Apr-21 @ 14:55 UTC (45 minutes ago) Visual Flight Rules
Wind Visibility Clouds
90° at 6 knots 10,000+ meters
  • Clear skies
Temperatures Readings
Current 24°C / 75°F
Dewpoint 10°C / 50°F
Humidity 41%
Altimeter 30.12" Hg
Pressure 1020 hPa
Elevation 64
METAR EBBL 211455Z AUTO 09006KT 9999 NCD 24/10 Q1020 BLU
Observed Flight Rules
Apr-21 @ 14:55 UTC
(45 minutes ago)
VFR
Wind Visibility
90° at 6 knots 10,000+ meters
Clouds
  • Clear skies
Temperature Dewpoint
24°C / 75°F 10°C / 50°F
Humidity Altimeter Pressure
41% 30.12" Hg 1020 hPa